createdAt,value
2023-04-05T00:00:20.209Z,82.34
2023-04-05T00:01:20.211Z,82.45
2023-04-05T00:02:20.158Z,82.45
2023-04-05T00:03:20.279Z,83.18
2023-04-05T00:04:20.250Z,83.07
2023-04-05T00:05:20.110Z,83.39
2023-04-05T00:06:20.089Z,83.07
2023-04-05T00:07:20.078Z,82.86
2023-04-05T00:08:20.127Z,83.01
2023-04-05T00:09:20.050Z,83.18
2023-04-05T00:10:20.040Z,82.93
2023-04-05T00:11:20.025Z,83.81
2023-04-05T00:12:20.019Z,84.12
2023-04-05T00:13:19.996Z,84.54
2023-04-05T00:14:19.989Z,84.01
2023-04-05T00:15:19.971Z,83.59
2023-04-05T00:16:20.086Z,83.81
2023-04-05T00:17:19.946Z,84.01
2023-04-05T00:18:20.106Z,84.64
2023-04-05T00:19:19.925Z,84.54
2023-04-05T00:20:19.908Z,84.39
2023-04-05T00:21:19.897Z,83.98
2023-04-05T00:22:19.876Z,83.81
2023-04-05T00:23:19.865Z,83.87
2023-04-05T00:24:19.849Z,83.28
2023-04-05T00:25:19.833Z,82.62
2023-04-05T00:26:19.827Z,82.45
2023-04-05T00:27:19.812Z,83.14
2023-04-05T00:28:20.076Z,83.77
2023-04-05T00:29:19.790Z,83.56
2023-04-05T00:30:19.778Z,83.14
2023-04-05T00:31:19.762Z,82.97
2023-04-05T00:32:19.775Z,82.51
2023-04-05T00:33:19.734Z,82.34
2023-04-05T00:34:19.727Z,82.30
2023-04-05T00:35:19.711Z,82.76
2023-04-05T00:36:19.704Z,83.28
2023-04-05T00:37:19.683Z,83.98
2023-04-05T00:38:19.696Z,84.08
2023-04-05T00:39:19.659Z,83.87
2023-04-05T00:40:19.646Z,83.81
2023-04-05T00:41:19.624Z,83.70
2023-04-05T00:42:19.619Z,83.39
2023-04-05T00:43:19.598Z,83.56
2023-04-05T00:44:19.595Z,84.12
2023-04-05T00:45:19.591Z,84.75
2023-04-05T00:46:19.603Z,85.38
2023-04-05T00:47:19.548Z,84.64
2023-04-05T00:48:19.587Z,84.22
2023-04-05T00:49:19.522Z,84.22
2023-04-05T00:50:19.957Z,84.33
2023-04-05T00:51:19.492Z,84.85
2023-04-05T00:52:19.503Z,85.17
2023-04-05T00:53:19.581Z,84.54
2023-04-05T00:54:19.453Z,84.54
2023-04-05T00:55:19.453Z,84.44
2023-04-05T00:56:19.425Z,84.22
2023-04-05T00:57:19.417Z,84.12
2023-04-05T00:58:19.416Z,84.54
2023-04-05T00:59:19.440Z,85.17
2023-04-05T01:00:19.369Z,85.48
2023-04-05T01:01:19.392Z,85.48
2023-04-05T01:02:19.343Z,85.17
2023-04-05T01:03:19.467Z,85.59
2023-04-05T01:04:19.397Z,85.48
2023-04-05T01:05:19.300Z,85.27
2023-04-05T01:06:19.289Z,85.17
2023-04-05T01:07:19.280Z,84.96
2023-04-05T01:08:19.346Z,85.17
2023-04-05T01:09:19.255Z,85.38
2023-04-05T01:10:19.243Z,84.85
2023-04-05T01:11:19.229Z,85.06
2023-04-05T01:12:19.214Z,84.75
2023-04-05T01:13:19.310Z,84.33
2023-04-05T01:14:19.183Z,84.54
2023-04-05T01:15:19.174Z,84.75
2023-04-05T01:16:19.203Z,84.75
2023-04-05T01:17:19.138Z,84.44
2023-04-05T01:18:19.356Z,84.37
2023-04-05T01:19:19.114Z,84.47
2023-04-05T01:20:19.149Z,85.63
2023-04-05T01:21:19.238Z,85.52
2023-04-05T01:22:19.276Z,85.00
2023-04-05T01:23:19.468Z,85.21
2023-04-05T01:24:19.398Z,85.88
2023-04-05T01:25:19.336Z,86.25
2023-04-05T01:26:19.017Z,86.68
2023-04-05T01:27:19.019Z,86.57
2023-04-05T01:28:19.000Z,85.94
2023-04-05T01:29:18.978Z,85.31
2023-04-05T01:30:18.973Z,85.83
2023-04-05T01:31:18.969Z,86.25
2023-04-05T01:32:18.947Z,86.78
2023-04-05T01:33:18.925Z,86.36
2023-04-05T01:34:18.915Z,85.94
2023-04-05T01:35:20.342Z,85.90
2023-04-05T01:36:18.954Z,86.22
2023-04-05T01:37:18.874Z,86.15
2023-04-05T01:38:19.085Z,85.83
2023-04-05T01:39:18.845Z,86.25
2023-04-05T01:40:18.832Z,86.36
2023-04-05T01:41:18.822Z,86.51
2023-04-05T01:42:18.809Z,86.88
2023-04-05T01:43:18.794Z,86.99
2023-04-05T01:44:18.790Z,87.30
2023-04-05T01:45:18.768Z,87.51
2023-04-05T01:46:18.796Z,87.62
2023-04-05T01:47:18.741Z,87.51
2023-04-05T01:48:18.731Z,87.09
2023-04-05T01:49:18.721Z,86.82
2023-04-05T01:50:18.718Z,86.78
2023-04-05T01:51:18.687Z,86.71
2023-04-05T01:52:18.699Z,87.24
2023-04-05T01:53:18.700Z,87.83
2023-04-05T01:54:18.648Z,88.04
2023-04-05T01:55:18.630Z,87.97
2023-04-05T01:56:18.630Z,87.76
2023-04-05T01:57:18.611Z,87.45
2023-04-05T01:58:18.748Z,87.13
2023-04-05T01:59:18.592Z,87.24
2023-04-05T02:00:18.574Z,87.66
2023-04-05T02:01:18.610Z,87.87
2023-04-05T02:02:18.550Z,88.18
2023-04-05T02:03:18.698Z,88.85
2023-04-05T02:04:18.509Z,88.71
2023-04-05T02:05:18.502Z,88.39
2023-04-05T02:06:18.493Z,88.39
2023-04-05T02:07:18.475Z,88.60
2023-04-05T02:08:18.489Z,88.96
2023-04-05T02:09:18.449Z,88.71
2023-04-05T02:10:18.436Z,88.71
2023-04-05T02:11:18.419Z,88.60
2023-04-05T02:12:18.417Z,88.75
2023-04-05T02:13:18.401Z,88.85
2023-04-05T02:14:18.383Z,88.54
2023-04-05T02:15:18.371Z,88.54
2023-04-05T02:16:18.419Z,88.85
2023-04-05T02:17:18.341Z,89.69
2023-04-05T02:18:18.342Z,90.00
2023-04-05T02:19:18.317Z,89.79
2023-04-05T02:20:18.304Z,89.69
2023-04-05T02:21:18.291Z,90.17
2023-04-05T02:22:18.285Z,90.80
2023-04-05T02:23:18.261Z,89.97
2023-04-05T02:24:18.279Z,89.54
2023-04-05T02:25:18.236Z,89.79
2023-04-05T02:26:18.226Z,90.07
2023-04-05T02:27:18.210Z,90.32
2023-04-05T02:28:18.209Z,89.90
2023-04-05T02:29:18.186Z,89.34
2023-04-05T02:30:18.178Z,88.96
2023-04-05T02:31:18.206Z,89.37
2023-04-05T02:32:18.148Z,89.97
2023-04-05T02:33:18.134Z,90.42
2023-04-05T02:34:18.118Z,89.90
2023-04-05T02:35:18.109Z,89.90
2023-04-05T02:36:18.091Z,89.69
2023-04-05T02:37:18.075Z,89.69
2023-04-05T02:38:18.085Z,89.48
2023-04-05T02:39:18.053Z,89.73
2023-04-05T02:40:18.070Z,89.42
2023-04-05T02:41:18.023Z,89.42
2023-04-05T02:42:18.008Z,89.84
2023-04-05T02:43:18.013Z,90.53
2023-04-05T02:44:17.984Z,90.47
2023-04-05T02:45:17.973Z,89.90
2023-04-05T02:46:17.990Z,90.05
2023-04-05T02:47:17.945Z,90.78
2023-04-05T02:48:17.942Z,90.47
2023-04-05T02:49:17.917Z,90.57
2023-04-05T02:50:17.902Z,90.78
2023-04-05T02:51:17.891Z,90.99
2023-04-05T02:52:17.874Z,91.30
2023-04-05T02:53:18.208Z,90.82
2023-04-05T02:54:17.848Z,90.67
2023-04-05T02:55:17.831Z,90.78
2023-04-05T02:56:17.853Z,90.57
2023-04-05T02:57:17.813Z,90.47
2023-04-05T02:58:17.941Z,90.15
2023-04-05T02:59:17.875Z,90.47
2023-04-05T03:00:17.762Z,90.61
2023-04-05T03:01:17.795Z,90.82
2023-04-05T03:02:17.733Z,91.41
2023-04-05T03:03:17.834Z,91.77
2023-04-05T03:04:17.721Z,91.03
2023-04-05T03:05:17.696Z,90.92
2023-04-05T03:06:17.684Z,91.03
2023-04-05T03:07:17.688Z,90.89
2023-04-05T03:08:17.664Z,90.89
2023-04-05T03:09:17.646Z,91.56
2023-04-05T03:10:17.632Z,91.14
2023-04-05T03:11:17.620Z,90.82
2023-04-05T03:12:17.667Z,90.99
2023-04-05T03:13:17.594Z,91.56
2023-04-05T03:14:17.578Z,91.87
2023-04-05T03:15:17.569Z,91.35
2023-04-05T03:16:17.566Z,91.35
2023-04-05T03:17:17.541Z,91.56
2023-04-05T03:18:17.517Z,91.35
2023-04-05T03:19:17.508Z,91.66
2023-04-05T03:20:17.490Z,91.39
2023-04-05T03:21:17.539Z,91.18
2023-04-05T03:22:17.465Z,91.18
2023-04-05T03:23:17.651Z,91.43
2023-04-05T03:24:17.443Z,91.71
2023-04-05T03:25:17.497Z,92.23
2023-04-05T03:26:17.417Z,92.23
2023-04-05T03:27:17.402Z,92.02
2023-04-05T03:28:17.409Z,92.02
2023-04-05T03:29:17.370Z,92.65
2023-04-05T03:30:17.365Z,92.76
2023-04-05T03:31:20.087Z,92.96
2023-04-05T03:32:17.331Z,92.96
2023-04-05T03:33:17.322Z,92.76
2023-04-05T03:34:17.315Z,92.54
2023-04-05T03:35:17.319Z,92.54
2023-04-05T03:36:17.281Z,92.96
2023-04-05T03:37:17.270Z,93.07
2023-04-05T03:38:17.253Z,93.59
2023-04-05T03:39:17.244Z,93.28
2023-04-05T03:40:17.235Z,93.28
2023-04-05T03:41:17.215Z,93.18
2023-04-05T03:42:17.204Z,93.28
2023-04-05T03:43:17.199Z,93.91
2023-04-05T03:44:17.202Z,93.80
2023-04-05T03:45:21.129Z,92.96
2023-04-05T03:46:18.203Z,92.65
2023-04-05T03:47:17.130Z,92.54
2023-04-05T03:48:17.118Z,92.58
2023-04-05T03:49:17.106Z,92.54
2023-04-05T03:50:17.102Z,93.28
2023-04-05T03:51:17.078Z,93.95
2023-04-05T03:52:17.079Z,94.12
2023-04-05T03:53:17.049Z,94.06
2023-04-05T03:54:17.034Z,93.70
2023-04-05T03:55:17.029Z,93.32
2023-04-05T03:56:17.006Z,93.11
2023-04-05T03:57:16.998Z,93.32
2023-04-05T03:58:17.200Z,93.32
2023-04-05T03:59:16.965Z,93.53
2023-04-05T04:00:16.980Z,93.74
2023-04-05T04:01:16.948Z,93.74
2023-04-05T04:02:16.965Z,93.43
2023-04-05T04:03:16.919Z,94.06
2023-04-05T04:04:16.892Z,94.17
2023-04-05T04:05:16.916Z,93.95
2023-04-05T04:06:19.200Z,94.10
2023-04-05T04:07:16.858Z,93.85
2023-04-05T04:08:16.957Z,94.10
2023-04-05T04:09:16.827Z,93.63
2023-04-05T04:10:16.814Z,94.06
2023-04-05T04:11:16.801Z,94.52
2023-04-05T04:12:16.794Z,93.95
2023-04-05T04:13:16.776Z,94.06
2023-04-05T04:14:16.759Z,94.17
2023-04-05T04:15:16.750Z,94.42
2023-04-05T04:16:16.779Z,94.73
2023-04-05T04:17:16.723Z,95.26
2023-04-05T04:18:16.713Z,95.21
2023-04-05T04:19:17.136Z,95.26
2023-04-05T04:20:16.688Z,95.42
2023-04-05T04:21:16.669Z,95.78
2023-04-05T04:22:16.648Z,95.47
2023-04-05T04:23:16.637Z,95.26
2023-04-05T04:24:16.627Z,95.04
2023-04-05T04:25:16.607Z,94.84
2023-04-05T04:26:16.592Z,94.73
2023-04-05T04:27:16.581Z,94.62
2023-04-05T04:28:16.574Z,94.42
2023-04-05T04:29:16.563Z,94.31
2023-04-05T04:30:16.908Z,94.52
2023-04-05T04:31:16.555Z,94.31
2023-04-05T04:32:16.542Z,94.31
2023-04-05T04:33:16.523Z,94.21
2023-04-05T04:34:16.493Z,94.52
2023-04-05T04:35:16.644Z,94.67
2023-04-05T04:36:16.463Z,94.31
2023-04-05T04:37:16.455Z,94.52
2023-04-05T04:38:16.443Z,94.56
2023-04-05T04:39:16.431Z,94.67
2023-04-05T04:40:16.412Z,94.67
2023-04-05T04:41:16.400Z,94.78
2023-04-05T04:42:16.737Z,94.98
2023-04-05T04:43:16.378Z,95.15
2023-04-05T04:44:16.359Z,95.51
2023-04-05T04:45:16.353Z,95.51
2023-04-05T04:46:16.430Z,95.40
2023-04-05T04:47:16.325Z,95.09
2023-04-05T04:48:16.361Z,95.09
2023-04-05T04:49:16.299Z,95.62
2023-04-05T04:50:16.326Z,95.72
2023-04-05T04:51:16.275Z,95.62
2023-04-05T04:52:16.270Z,95.72
2023-04-05T04:53:16.250Z,95.40
2023-04-05T04:54:16.227Z,95.51
2023-04-05T04:55:16.228Z,95.40
2023-04-05T04:56:16.204Z,95.20
2023-04-05T04:57:16.198Z,95.72
2023-04-05T04:58:16.178Z,96.03
2023-04-05T04:59:16.340Z,95.93
2023-04-05T05:00:16.175Z,95.93
2023-04-05T05:01:16.225Z,96.14
2023-04-05T05:02:16.136Z,96.03
2023-04-05T05:03:16.120Z,95.83
2023-04-05T05:04:16.242Z,95.87
2023-04-05T05:05:16.118Z,95.93
2023-04-05T05:06:16.111Z,96.14
2023-04-05T05:07:16.076Z,96.56
2023-04-05T05:08:17.344Z,96.98
2023-04-05T05:09:16.043Z,97.30
2023-04-05T05:10:16.048Z,97.36
2023-04-05T05:11:16.013Z,97.51
2023-04-05T05:12:16.009Z,97.36
2023-04-05T05:13:15.996Z,97.05
2023-04-05T05:14:15.989Z,96.73
2023-04-05T05:15:15.973Z,96.20
2023-04-05T05:16:15.984Z,96.10
2023-04-05T05:17:15.943Z,96.31
2023-04-05T05:18:15.916Z,96.10
2023-04-05T05:19:15.908Z,95.89
2023-04-05T05:20:15.922Z,95.74
2023-04-05T05:21:16.040Z,95.47
2023-04-05T05:22:15.873Z,95.26
2023-04-05T05:23:15.861Z,95.10
2023-04-05T05:24:15.848Z,95.00
2023-04-05T05:25:16.188Z,95.32
2023-04-05T05:26:15.814Z,95.53
2023-04-05T05:27:15.804Z,95.42
2023-04-05T05:28:15.797Z,95.32
2023-04-05T05:29:15.835Z,94.85
2023-04-05T05:30:15.767Z,94.65
2023-04-05T05:31:15.788Z,94.33
2023-04-05T05:32:15.740Z,94.08
2023-04-05T05:33:15.747Z,93.87
2023-04-05T05:34:15.714Z,93.62
2023-04-05T05:35:15.701Z,93.40
2023-04-05T05:36:15.716Z,92.88
2023-04-05T05:37:15.674Z,92.32
2023-04-05T05:38:15.658Z,92.04
2023-04-05T05:39:15.643Z,91.79
2023-04-05T05:40:15.628Z,91.37
2023-04-05T05:41:15.616Z,90.95
2023-04-05T05:42:15.598Z,90.53
2023-04-05T05:43:15.595Z,90.28
2023-04-05T05:44:15.875Z,90.17
2023-04-05T05:45:15.566Z,89.97
2023-04-05T05:46:15.588Z,89.61
2023-04-05T05:47:15.544Z,89.15
2023-04-05T05:48:15.520Z,88.73
2023-04-05T05:49:15.510Z,88.17
2023-04-05T05:50:15.498Z,87.50
2023-04-05T05:51:15.483Z,86.72
2023-04-05T05:52:15.485Z,85.96
2023-04-05T05:53:15.450Z,85.18
2023-04-05T05:54:15.437Z,84.34
2023-04-05T05:55:15.436Z,83.58
2023-04-05T05:56:15.413Z,82.81
2023-04-05T05:57:15.402Z,81.97
2023-04-05T05:58:15.394Z,81.31
2023-04-05T05:59:15.402Z,81.16
2023-04-05T06:00:15.359Z,80.61
2023-04-05T06:01:15.360Z,79.67
2023-04-05T06:02:15.358Z,79.32
2023-04-05T06:03:15.409Z,78.24
2023-04-05T06:04:15.440Z,77.51
2023-04-05T06:05:15.290Z,76.99
2023-04-05T06:06:15.295Z,76.40
2023-04-05T06:07:15.282Z,75.88
2023-04-05T06:08:15.288Z,75.22
2023-04-05T06:09:15.240Z,74.60
2023-04-05T06:10:15.223Z,74.15
2023-04-05T06:11:15.217Z,73.42
2023-04-05T06:12:15.205Z,73.32
2023-04-05T06:13:15.191Z,73.49
2023-04-05T06:14:15.183Z,73.04
2023-04-05T06:15:15.166Z,72.17
2023-04-05T06:16:15.158Z,71.66
2023-04-05T06:17:15.132Z,71.34
2023-04-05T06:18:15.113Z,70.69
2023-04-05T06:19:15.112Z,70.48
2023-04-05T06:20:15.090Z,69.62
2023-04-05T06:21:15.074Z,69.59
2023-04-05T06:22:15.064Z,68.76
2023-04-05T06:23:15.055Z,68.73
2023-04-05T06:24:15.077Z,68.28
2023-04-05T06:25:17.683Z,67.35
2023-04-05T06:26:15.005Z,66.69
2023-04-05T06:27:15.014Z,67.00
2023-04-05T06:28:14.990Z,66.25
2023-04-05T06:29:14.966Z,66.05
2023-04-05T06:30:14.960Z,65.94
2023-04-05T06:31:14.987Z,65.22
2023-04-05T06:32:14.936Z,64.87
2023-04-05T06:33:14.920Z,65.50
2023-04-05T06:34:14.902Z,64.87
2023-04-05T06:35:15.188Z,64.77
2023-04-05T06:36:14.866Z,64.61
2023-04-05T06:37:14.854Z,64.30
2023-04-05T06:38:14.846Z,63.42
2023-04-05T06:39:14.891Z,62.87
2023-04-05T06:40:14.846Z,62.22
2023-04-05T06:41:14.804Z,61.08
2023-04-05T06:42:14.803Z,60.31
2023-04-05T06:43:14.797Z,59.61
2023-04-05T06:44:14.759Z,59.74
2023-04-05T06:45:14.749Z,60.39
2023-04-05T06:46:14.774Z,60.36
2023-04-05T06:47:14.719Z,59.82
2023-04-05T06:48:14.709Z,59.79
2023-04-05T06:49:14.690Z,59.56
2023-04-05T06:50:14.677Z,59.33
2023-04-05T06:51:14.666Z,59.06
2023-04-05T06:52:14.662Z,57.42
2023-04-05T06:53:14.642Z,57.01
2023-04-05T06:54:14.633Z,56.57
2023-04-05T06:55:14.620Z,56.38
2023-04-05T06:56:14.620Z,55.95
2023-04-05T06:57:14.590Z,55.38
2023-04-05T06:58:14.576Z,55.87
2023-04-05T06:59:14.637Z,56.15
2023-04-05T07:00:14.550Z,55.74
2023-04-05T07:01:14.556Z,54.28
2023-04-05T07:02:14.716Z,54.28
2023-04-05T07:03:14.565Z,52.64
2023-04-05T07:04:14.648Z,53.61
2023-04-05T07:05:14.486Z,54.53
2023-04-05T07:06:14.464Z,55.33
2023-04-05T07:07:14.445Z,53.56
2023-04-05T07:08:14.447Z,54.74
2023-04-05T07:09:14.580Z,53.99
2023-04-05T07:10:14.411Z,55.30
2023-04-05T07:11:14.400Z,56.65
2023-04-05T07:12:14.597Z,57.18
2023-04-05T07:13:14.364Z,54.74
2023-04-05T07:14:14.356Z,54.20
2023-04-05T07:15:14.334Z,53.61
2023-04-05T07:16:14.397Z,52.95
2023-04-05T07:17:14.322Z,51.98
2023-04-05T07:18:14.345Z,50.39
2023-04-05T07:19:14.531Z,49.42
2023-04-05T07:20:14.273Z,48.27
2023-04-05T07:21:14.274Z,47.76
2023-04-05T07:22:14.268Z,47.85
2023-04-05T07:23:14.249Z,47.15
2023-04-05T07:24:14.217Z,47.15
2023-04-05T07:25:14.214Z,47.74
2023-04-05T07:26:14.183Z,46.66
2023-04-05T07:27:14.172Z,47.35
2023-04-05T07:28:14.198Z,47.83
2023-04-05T07:29:14.158Z,48.26
2023-04-05T07:30:14.381Z,48.57
2023-04-05T07:31:14.132Z,48.96
2023-04-05T07:32:14.182Z,48.19
2023-04-05T07:33:14.121Z,48.25
2023-04-05T07:34:14.094Z,46.80
2023-04-05T07:35:14.072Z,46.98
2023-04-05T07:36:14.070Z,46.45
2023-04-05T07:37:14.042Z,45.72
2023-04-05T07:38:14.030Z,44.24
2023-04-05T07:39:14.017Z,44.12
2023-04-05T07:40:13.997Z,43.90
2023-04-05T07:41:14.186Z,42.82
2023-04-05T07:42:13.975Z,43.63
2023-04-05T07:43:13.956Z,41.69
2023-04-05T07:44:13.966Z,43.23
2023-04-05T07:45:13.931Z,42.80
2023-04-05T07:46:13.959Z,42.18
2023-04-05T07:47:13.903Z,43.20
2023-04-05T07:48:13.888Z,43.29
2023-04-05T07:49:13.875Z,43.57
2023-04-05T07:50:13.861Z,41.72
2023-04-05T07:51:13.843Z,40.99
2023-04-05T07:52:13.833Z,43.14
2023-04-05T07:53:13.815Z,42.96
2023-04-05T07:54:13.966Z,42.53
2023-04-05T07:55:13.836Z,42.71
2023-04-05T07:56:13.814Z,41.27
2023-04-05T07:57:13.769Z,40.99
2023-04-05T07:58:13.760Z,41.21
2023-04-05T07:59:15.117Z,41.86
2023-04-05T08:00:13.767Z,42.41
2023-04-05T08:01:13.713Z,43.30
2023-04-05T08:02:14.949Z,42.86
2023-04-05T08:03:13.925Z,41.88
2023-04-05T08:04:13.758Z,42.49
2023-04-05T08:05:13.700Z,43.32
2023-04-05T08:06:13.658Z,42.45
2023-04-05T08:07:13.630Z,41.53
2023-04-05T08:08:13.614Z,41.90
2023-04-05T08:09:13.602Z,41.27
2023-04-05T08:10:13.590Z,41.13
2023-04-05T08:11:13.583Z,40.81
2023-04-05T08:12:13.566Z,38.49
2023-04-05T08:13:13.551Z,39.22
2023-04-05T08:14:13.549Z,39.08
2023-04-05T08:15:13.531Z,39.37
2023-04-05T08:16:13.581Z,38.84
2023-04-05T08:17:13.502Z,38.66
2023-04-05T08:18:13.481Z,38.70
2023-04-05T08:19:15.573Z,40.44
2023-04-05T08:20:13.459Z,40.01
2023-04-05T08:21:13.443Z,39.83
2023-04-05T08:22:13.733Z,39.22
2023-04-05T08:23:13.416Z,39.51
2023-04-05T08:24:13.447Z,38.49
2023-04-05T08:25:13.394Z,37.37
2023-04-05T08:26:13.377Z,38.98
2023-04-05T08:27:13.462Z,38.37
2023-04-05T08:28:13.348Z,39.25
2023-04-05T08:29:13.328Z,37.81
2023-04-05T08:30:13.329Z,37.18
2023-04-05T08:31:13.996Z,36.87
2023-04-05T08:32:13.438Z,36.94
2023-04-05T08:33:13.366Z,36.91
2023-04-05T08:34:13.266Z,35.26
2023-04-05T08:35:13.252Z,35.75
2023-04-05T08:36:13.247Z,34.86
2023-04-05T08:37:13.230Z,34.67
2023-04-05T08:38:13.230Z,34.31
2023-04-05T08:39:13.203Z,34.64
2023-04-05T08:40:13.188Z,36.36
2023-04-05T08:41:13.171Z,34.94
2023-04-05T08:42:13.164Z,34.00
2023-04-05T08:43:13.152Z,33.71
2023-04-05T08:44:13.130Z,35.26
2023-04-05T08:45:13.123Z,35.99
2023-04-05T08:46:13.134Z,36.83
2023-04-05T08:47:13.089Z,37.66
2023-04-05T08:48:13.212Z,36.85
2023-04-05T08:49:13.068Z,35.44
2023-04-05T08:50:13.054Z,37.10
2023-04-05T08:51:13.042Z,36.78
2023-04-05T08:52:13.040Z,37.90
2023-04-05T08:53:13.023Z,37.08
2023-04-05T08:54:13.010Z,36.16
2023-04-05T08:55:12.995Z,37.27
2023-04-05T08:56:12.971Z,36.46
2023-04-05T08:57:12.959Z,34.70
2023-04-05T08:58:12.955Z,33.48
2023-04-05T08:59:13.087Z,35.09
2023-04-05T09:00:12.928Z,31.86
2023-04-05T09:01:12.921Z,33.09
2023-04-05T09:02:12.915Z,31.40
2023-04-05T09:03:13.049Z,31.88
2023-04-05T09:04:13.006Z,34.81
2023-04-05T09:05:12.857Z,34.56
2023-04-05T09:06:12.850Z,33.72
2023-04-05T09:07:12.838Z,33.80
2023-04-05T09:08:12.828Z,33.07
2023-04-05T09:09:12.815Z,33.44
2023-04-05T09:10:12.787Z,33.30
2023-04-05T09:11:12.783Z,32.16
2023-04-05T09:12:12.770Z,30.41
2023-04-05T09:13:12.752Z,29.60
2023-04-05T09:14:12.743Z,29.28
2023-04-05T09:15:12.735Z,30.43
2023-04-05T09:16:12.723Z,30.60
2023-04-05T09:17:12.826Z,29.59
2023-04-05T09:18:25.562Z,29.88
2023-04-05T09:19:13.703Z,29.27
2023-04-05T09:20:12.686Z,30.26
2023-04-05T09:21:12.653Z,28.52
2023-04-05T09:22:12.634Z,28.34
2023-04-05T09:23:12.627Z,29.64
2023-04-05T09:24:12.627Z,29.46
2023-04-05T09:25:12.600Z,28.81
2023-04-05T09:26:12.577Z,28.52
2023-04-05T09:27:12.586Z,26.82
2023-04-05T09:28:12.556Z,27.82
2023-04-05T09:29:12.542Z,26.61
2023-04-05T09:30:12.528Z,27.14
2023-04-05T09:31:12.576Z,27.86
2023-04-05T09:32:12.503Z,29.22
2023-04-05T09:33:12.516Z,30.64
2023-04-05T09:34:12.465Z,30.50
2023-04-05T09:35:12.457Z,29.85
2023-04-05T09:36:12.483Z,28.51
2023-04-05T09:37:12.431Z,27.80
2023-04-05T09:38:12.417Z,26.97
2023-04-05T09:39:12.410Z,25.96
2023-04-05T09:40:12.393Z,27.87
2023-04-05T09:41:12.377Z,25.64
2023-04-05T09:42:12.367Z,24.02
2023-04-05T09:43:12.347Z,25.93
2023-04-05T09:44:12.356Z,25.54
2023-04-05T09:45:12.337Z,24.05
2023-04-05T09:46:12.360Z,25.30
2023-04-05T09:47:12.318Z,27.04
2023-04-05T09:48:12.299Z,26.23
2023-04-05T09:49:12.271Z,26.31
2023-04-05T09:50:12.266Z,25.60
2023-04-05T09:51:13.179Z,26.34
2023-04-05T09:52:12.272Z,25.66
2023-04-05T09:53:12.223Z,27.06
2023-04-05T09:54:12.236Z,26.61
2023-04-05T09:55:12.193Z,26.87
2023-04-05T09:56:12.182Z,24.48
2023-04-05T09:57:12.171Z,26.59
2023-04-05T09:58:12.148Z,27.92
2023-04-05T09:59:12.169Z,26.12
2023-04-05T10:00:12.120Z,28.12
2023-04-05T10:01:17.209Z,26.68
2023-04-05T10:02:12.236Z,25.26
2023-04-05T10:03:12.146Z,25.01
2023-04-05T10:04:12.299Z,27.29
2023-04-05T10:05:12.309Z,27.90
2023-04-05T10:06:12.056Z,28.59
2023-04-05T10:07:12.040Z,27.39
2023-04-05T10:08:12.041Z,27.59
2023-04-05T10:09:12.045Z,28.01
2023-04-05T10:10:11.989Z,28.09
2023-04-05T10:11:11.979Z,28.55
2023-04-05T10:12:11.962Z,27.91
2023-04-05T10:13:11.956Z,27.05
2023-04-05T10:14:11.951Z,24.56
2023-04-05T10:15:11.926Z,25.38
2023-04-05T10:16:11.946Z,26.10
2023-04-05T10:17:11.896Z,26.61
2023-04-05T10:18:11.949Z,27.19
2023-04-05T10:19:13.006Z,26.37
2023-04-05T10:20:11.852Z,25.85
2023-04-05T10:21:11.841Z,26.14
2023-04-05T10:22:11.832Z,25.63
2023-04-05T10:23:11.815Z,25.94
2023-04-05T10:24:11.825Z,26.85
2023-04-05T10:25:11.787Z,26.13
2023-04-05T10:26:11.777Z,25.04
2023-04-05T10:27:11.778Z,25.67
2023-04-05T10:28:11.746Z,27.17
2023-04-05T10:29:11.743Z,25.65
2023-04-05T10:30:11.731Z,26.28
2023-04-05T10:31:11.745Z,25.96
2023-04-05T10:32:11.706Z,26.15
2023-04-05T10:33:11.771Z,23.34
2023-04-05T10:34:11.694Z,24.75
2023-04-05T10:35:11.656Z,24.60
2023-04-05T10:36:11.649Z,26.87
2023-04-05T10:37:11.706Z,26.91
2023-04-05T10:38:11.639Z,29.15
2023-04-05T10:39:11.622Z,29.18
2023-04-05T10:40:11.627Z,29.88
2023-04-05T10:41:11.573Z,29.22
2023-04-05T10:42:11.580Z,27.18
2023-04-05T10:43:11.604Z,26.70
2023-04-05T10:44:25.138Z,29.44
2023-04-05T10:45:12.614Z,28.41
2023-04-05T10:46:11.626Z,27.55
2023-04-05T10:47:11.569Z,27.00
2023-04-05T10:48:11.555Z,27.17
2023-04-05T10:49:11.609Z,27.22
2023-04-05T10:50:11.460Z,29.08
2023-04-05T10:51:11.472Z,28.81
2023-04-05T10:52:11.475Z,30.57
2023-04-05T10:53:11.412Z,31.50
2023-04-05T10:54:11.410Z,31.92
2023-04-05T10:55:11.468Z,32.44
2023-04-05T10:56:11.407Z,32.75
2023-04-05T10:57:11.372Z,32.95
2023-04-05T10:58:11.359Z,33.59
2023-04-05T10:59:11.476Z,31.50
2023-04-05T11:00:11.334Z,34.76
2023-04-05T11:01:11.358Z,35.27
2023-04-05T11:02:11.333Z,35.19
2023-04-05T11:03:11.434Z,36.08
2023-04-05T11:04:11.292Z,34.64
2023-04-05T11:05:11.279Z,34.83
2023-04-05T11:06:11.248Z,32.68
2023-04-05T11:07:11.234Z,32.76
2023-04-05T11:08:11.221Z,32.54
2023-04-05T11:09:11.663Z,32.83
2023-04-05T11:10:11.202Z,32.60
2023-04-05T11:11:11.330Z,32.48
2023-04-05T11:12:11.192Z,31.89
2023-04-05T11:13:11.181Z,33.43
2023-04-05T11:14:11.139Z,32.71
2023-04-05T11:15:11.125Z,32.26
2023-04-05T11:16:11.129Z,31.70
2023-04-05T11:17:11.360Z,31.54
2023-04-05T11:18:11.431Z,29.86
2023-04-05T11:19:11.099Z,25.89
2023-04-05T11:20:11.063Z,27.29
2023-04-05T11:21:11.052Z,25.67
2023-04-05T11:22:11.029Z,25.48
2023-04-05T11:23:11.020Z,25.68
2023-04-05T11:24:11.089Z,24.59
2023-04-05T11:25:10.989Z,27.42
2023-04-05T11:26:10.979Z,27.42
2023-04-05T11:27:10.976Z,26.92
2023-04-05T11:28:10.981Z,27.14
2023-04-05T11:29:10.993Z,27.95
2023-04-05T11:30:10.948Z,28.44
2023-04-05T11:31:11.069Z,26.42
2023-04-05T11:32:10.925Z,26.93
2023-04-05T11:33:10.940Z,28.35
2023-04-05T11:34:10.973Z,27.95
2023-04-05T11:35:10.879Z,28.54
2023-04-05T11:36:10.979Z,27.53
2023-04-05T11:37:10.875Z,27.82
2023-04-05T11:38:10.840Z,27.89
2023-04-05T11:39:10.811Z,27.67
2023-04-05T11:40:10.806Z,26.13
2023-04-05T11:41:10.781Z,26.41
2023-04-05T11:42:10.789Z,25.71
2023-04-05T11:43:10.771Z,24.10
2023-04-05T11:44:10.774Z,25.52
2023-04-05T11:45:10.728Z,26.41
2023-04-05T11:46:10.748Z,25.42
2023-04-05T11:47:10.745Z,24.81
2023-04-05T11:48:10.693Z,25.82
2023-04-05T11:49:10.708Z,25.23
2023-04-05T11:50:10.668Z,26.42
2023-04-05T11:51:10.664Z,28.02
2023-04-05T11:52:10.635Z,25.12
2023-04-05T11:53:10.634Z,26.29
2023-04-05T11:54:10.874Z,23.74
2023-04-05T11:55:10.592Z,25.50
2023-04-05T11:56:10.596Z,27.61
2023-04-05T11:57:10.578Z,27.28
2023-04-05T11:58:10.553Z,27.25
2023-04-05T11:59:10.583Z,27.26
2023-04-05T12:00:10.561Z,25.05
2023-04-05T12:01:10.531Z,27.56
2023-04-05T12:02:10.519Z,25.84
2023-04-05T12:03:10.554Z,25.82
2023-04-05T12:04:10.472Z,24.91
2023-04-05T12:05:10.549Z,26.70
2023-04-05T12:06:10.461Z,24.54
2023-04-05T12:07:10.442Z,26.39
2023-04-05T12:08:10.426Z,25.54
2023-04-05T12:09:10.420Z,27.15
2023-04-05T12:10:10.407Z,27.53
2023-04-05T12:11:10.387Z,26.10
2023-04-05T12:12:10.375Z,27.00
2023-04-05T12:13:10.360Z,27.49
2023-04-05T12:14:10.349Z,26.86
2023-04-05T12:15:10.334Z,25.49
2023-04-05T12:16:10.419Z,26.52
2023-04-05T12:17:10.316Z,27.81
2023-04-05T12:18:10.313Z,27.06
2023-04-05T12:19:10.289Z,26.26
2023-04-05T12:20:10.275Z,27.02
2023-04-05T12:21:10.261Z,24.98
2023-04-05T12:22:10.240Z,24.15
2023-04-05T12:23:10.226Z,23.93
2023-04-05T12:24:10.220Z,23.62
2023-04-05T12:25:10.214Z,23.91
2023-04-05T12:26:10.201Z,24.42
2023-04-05T12:27:10.182Z,23.73
2023-04-05T12:28:10.165Z,23.35
2023-04-05T12:29:10.155Z,24.27
2023-04-05T12:30:10.248Z,24.38
2023-04-05T12:31:10.129Z,24.45
2023-04-05T12:32:10.301Z,23.94
2023-04-05T12:33:10.099Z,22.87
2023-04-05T12:34:10.094Z,24.02
2023-04-05T12:35:10.114Z,26.34
2023-04-05T12:36:10.164Z,25.05
2023-04-05T12:37:10.061Z,25.84
2023-04-05T12:38:10.039Z,25.33
2023-04-05T12:39:10.053Z,25.52
2023-04-05T12:40:10.023Z,25.42
2023-04-05T12:41:10.077Z,25.83
2023-04-05T12:42:09.989Z,26.81
2023-04-05T12:43:09.979Z,26.48
2023-04-05T12:44:09.964Z,25.28
2023-04-05T12:45:11.488Z,25.38
2023-04-05T12:46:09.981Z,26.07
2023-04-05T12:47:09.931Z,25.27
2023-04-05T12:48:09.947Z,25.37
2023-04-05T12:49:09.964Z,24.58
2023-04-05T12:50:09.890Z,25.88
2023-04-05T12:51:10.127Z,26.08
2023-04-05T12:52:09.871Z,24.96